createdAt,value
2023-05-04T00:00:59.732Z,7.05
2023-05-04T00:04:01.887Z,6.60
2023-05-04T00:07:03.655Z,6.65
2023-05-04T00:10:05.919Z,6.97
2023-05-04T00:13:07.668Z,7.60
2023-05-04T00:16:10.912Z,7.03
2023-05-04T00:19:13.138Z,7.60
2023-05-04T00:22:14.581Z,7.28
2023-05-04T00:25:16.582Z,7.57
2023-05-04T00:28:18.053Z,7.25
2023-05-04T00:31:19.723Z,7.28
2023-05-04T00:34:21.655Z,7.22
2023-05-04T00:37:23.385Z,7.68
2023-05-04T00:40:25.494Z,7.72
2023-05-04T00:43:27.065Z,7.47
2023-05-04T00:46:28.601Z,7.68
2023-05-04T00:49:30.126Z,6.90
2023-05-04T00:52:31.790Z,7.95
2023-05-04T00:55:34.225Z,7.25
2023-05-04T00:58:35.816Z,8.27
2023-05-04T01:01:37.501Z,7.93
2023-05-04T01:04:39.405Z,7.93
2023-05-04T01:08:02.167Z,8.35
2023-05-04T01:11:27.041Z,7.97
2023-05-04T01:14:30.220Z,7.82
2023-05-04T01:17:31.757Z,8.05
2023-05-04T01:20:33.650Z,7.82
2023-05-04T01:23:35.669Z,8.30
2023-05-04T01:26:43.278Z,8.50
2023-05-04T01:29:47.848Z,8.57
2023-05-04T01:32:51.246Z,9.05
2023-05-04T01:35:52.840Z,8.02
2023-05-04T01:38:55.358Z,8.73
2023-05-04T01:41:57.167Z,9.05
2023-05-04T01:44:58.722Z,8.73
2023-05-04T01:48:16.875Z,9.07
2023-05-04T01:51:34.829Z,9.13
2023-05-04T01:54:36.406Z,8.70
2023-05-04T01:57:38.841Z,9.25
2023-05-04T02:00:40.772Z,10.35
2023-05-04T02:03:42.520Z,9.82
2023-05-04T02:06:44.731Z,9.95
2023-05-04T02:09:46.222Z,9.35
2023-05-04T02:12:47.878Z,9.15
2023-05-04T02:15:49.425Z,8.40
2023-05-04T02:18:52.320Z,8.98
2023-05-04T02:21:53.809Z,8.63
2023-05-04T02:24:56.593Z,9.45
2023-05-04T02:27:58.062Z,8.98
2023-05-04T02:30:59.535Z,10.32
2023-05-04T02:34:01.803Z,9.40
2023-05-04T02:37:07.207Z,10.35
2023-05-04T02:40:10.308Z,9.15
2023-05-04T02:43:11.857Z,9.88
2023-05-04T02:46:13.828Z,9.77
2023-05-04T02:49:15.376Z,9.85
2023-05-04T02:52:16.792Z,9.07
2023-05-04T02:55:18.433Z,9.60
2023-05-04T02:58:19.872Z,8.98
2023-05-04T03:01:21.502Z,9.10
2023-05-04T03:04:23.111Z,10.52
2023-05-04T03:07:26.175Z,9.10
2023-05-04T03:10:27.652Z,9.50
2023-05-04T03:13:29.090Z,8.60
2023-05-04T03:16:30.788Z,8.93
2023-05-04T03:19:32.330Z,10.20
2023-05-04T03:22:33.865Z,9.48
2023-05-04T03:25:36.157Z,9.63
2023-05-04T03:28:38.181Z,8.63
2023-05-04T03:31:40.731Z,10.43
2023-05-04T03:34:42.791Z,9.10
2023-05-04T03:37:44.484Z,9.10
2023-05-04T03:40:46.047Z,10.35
2023-05-04T03:43:48.595Z,9.75
2023-05-04T03:46:50.105Z,9.43
2023-05-04T03:49:51.843Z,10.05
2023-05-04T03:52:53.419Z,9.95
2023-05-04T03:58:59.282Z,9.68
2023-05-04T04:02:04.813Z,9.60
2023-05-04T04:05:07.057Z,10.00
2023-05-04T04:08:10.444Z,10.65
2023-05-04T04:11:12.112Z,10.80
2023-05-04T04:14:13.543Z,9.20
2023-05-04T04:17:15.238Z,11.68
2023-05-04T04:20:16.962Z,10.40
2023-05-04T04:23:19.323Z,9.60
2023-05-04T04:26:21.609Z,9.85
2023-05-04T04:29:23.189Z,9.43
2023-05-04T04:32:24.740Z,8.95
2023-05-04T04:35:27.495Z,9.82
2023-05-04T04:38:29.031Z,10.00
2023-05-04T04:41:30.622Z,9.57
2023-05-04T04:44:32.084Z,9.25
2023-05-04T04:47:33.930Z,9.35
2023-05-04T04:50:38.608Z,9.95
2023-05-04T04:53:40.205Z,9.27
2023-05-04T04:56:41.778Z,8.65
2023-05-04T04:59:43.333Z,10.20
2023-05-04T05:02:45.652Z,9.60
2023-05-04T05:05:47.171Z,9.75
2023-05-04T05:08:49.782Z,10.10
2023-05-04T05:11:51.272Z,9.82
2023-05-04T05:14:52.728Z,10.18
2023-05-04T05:17:54.360Z,9.70
2023-05-04T05:20:56.515Z,10.07
2023-05-04T05:23:58.044Z,10.90
2023-05-04T05:27:00.348Z,8.95
2023-05-04T05:30:03.322Z,9.57
2023-05-04T05:33:05.698Z,8.82
2023-05-04T05:36:07.508Z,9.32
2023-05-04T05:39:08.979Z,9.27
2023-05-04T05:42:11.263Z,8.90
2023-05-04T05:45:12.829Z,9.00
2023-05-04T05:48:14.446Z,9.23
2023-05-04T05:51:16.422Z,8.70
2023-05-04T05:54:17.939Z,8.23
2023-05-04T05:57:20.641Z,8.82
2023-05-04T06:00:22.302Z,9.15
2023-05-04T06:03:24.027Z,9.40
2023-05-04T06:06:25.766Z,9.75
2023-05-04T06:09:27.867Z,10.60
2023-05-04T06:12:29.350Z,9.93
2023-05-04T06:15:30.958Z,9.98
2023-05-04T06:18:32.881Z,10.45
2023-05-04T06:21:34.386Z,10.48
2023-05-04T06:24:35.815Z,9.40
2023-05-04T06:27:37.400Z,9.82
2023-05-04T06:30:38.881Z,11.45
2023-05-04T06:33:40.474Z,9.88
2023-05-04T06:36:42.272Z,9.95
2023-05-04T06:39:43.723Z,9.05
2023-05-04T06:42:45.223Z,10.82
2023-05-04T06:45:46.758Z,9.85
2023-05-04T06:48:48.444Z,10.05
2023-05-04T06:51:50.045Z,10.30
2023-05-04T06:54:51.692Z,10.70
2023-05-04T06:57:53.107Z,9.05
2023-05-04T07:00:54.925Z,8.88
2023-05-04T07:03:58.323Z,8.63
2023-05-04T07:06:59.853Z,8.85
2023-05-04T07:10:01.632Z,9.35
2023-05-04T07:13:03.485Z,9.48
2023-05-04T07:16:07.566Z,10.20
2023-05-04T07:22:10.545Z,9.18
2023-05-04T07:25:12.026Z,9.20
2023-05-04T07:28:13.495Z,9.02
2023-05-04T07:31:15.904Z,11.48
2023-05-04T07:34:17.467Z,10.43
2023-05-04T07:37:19.098Z,10.02
2023-05-04T07:40:21.488Z,9.57
2023-05-04T07:43:23.760Z,8.10
2023-05-04T07:46:25.266Z,7.22
2023-05-04T07:49:27.089Z,6.45
2023-05-04T07:52:28.684Z,6.40
2023-05-04T07:55:30.849Z,6.13
2023-05-04T07:58:32.287Z,5.95
2023-05-04T08:01:33.822Z,6.85
2023-05-04T08:04:35.590Z,7.47
2023-05-04T08:07:37.386Z,8.05
2023-05-04T08:10:39.045Z,8.43
2023-05-04T08:13:41.183Z,8.77
2023-05-04T08:16:42.711Z,8.18
2023-05-04T08:19:44.619Z,8.05
2023-05-04T08:22:46.388Z,7.65
2023-05-04T08:25:47.908Z,7.72
2023-05-04T08:28:49.882Z,8.27
2023-05-04T08:31:51.454Z,8.45
2023-05-04T08:34:52.963Z,8.60
2023-05-04T08:37:54.694Z,8.55
2023-05-04T08:40:56.234Z,8.20
2023-05-04T08:43:58.719Z,8.65
2023-05-04T08:47:03.485Z,8.40
2023-05-04T08:50:07.387Z,7.22
2023-05-04T08:53:13.434Z,8.40
2023-05-04T08:56:16.663Z,7.32
2023-05-04T08:59:23.339Z,8.03
2023-05-04T09:02:24.926Z,8.85
2023-05-04T09:05:27.861Z,8.65
2023-05-04T09:08:29.525Z,8.63
2023-05-04T09:11:31.219Z,9.23
2023-05-04T09:14:34.676Z,9.35
2023-05-04T09:17:41.980Z,9.05
2023-05-04T09:20:49.287Z,8.50
2023-05-04T09:23:54.116Z,8.75
2023-05-04T09:26:56.053Z,8.00
2023-05-04T09:29:57.636Z,8.00
2023-05-04T09:32:59.580Z,8.15
2023-05-04T09:36:17.196Z,7.90
2023-05-04T09:39:19.269Z,7.95
2023-05-04T09:42:21.970Z,7.68
2023-05-04T09:45:23.452Z,7.43
2023-05-04T09:48:34.002Z,7.80
2023-05-04T09:51:35.832Z,7.30
2023-05-04T09:54:43.472Z,7.25
2023-05-04T09:57:46.218Z,7.63
2023-05-04T10:00:47.765Z,7.25
2023-05-04T10:03:49.354Z,7.20
2023-05-04T10:06:50.951Z,9.43
2023-05-04T10:09:53.407Z,6.75
2023-05-04T10:12:54.997Z,7.00
2023-05-04T10:16:14.143Z,6.13
2023-05-04T10:19:50.135Z,5.07
2023-05-04T10:23:29.261Z,4.85
2023-05-04T10:26:55.272Z,5.68
2023-05-04T10:29:56.829Z,4.72
2023-05-04T10:32:59.293Z,4.68
2023-05-04T10:36:01.003Z,5.20
2023-05-04T10:39:02.494Z,5.07
2023-05-04T10:42:06.478Z,5.25
2023-05-04T10:48:11.059Z,5.43
2023-05-04T10:51:19.722Z,5.00
2023-05-04T10:54:21.254Z,4.80
2023-05-04T10:57:22.802Z,5.57
2023-05-04T11:00:36.457Z,5.03
2023-05-04T11:03:40.984Z,5.00
2023-05-04T11:06:42.566Z,5.13
2023-05-04T11:09:44.497Z,5.22
2023-05-04T11:12:46.009Z,5.15
2023-05-04T11:15:48.887Z,5.38
2023-05-04T11:18:50.612Z,5.25
2023-05-04T11:21:52.160Z,5.28
2023-05-04T11:25:02.210Z,5.22
2023-05-04T11:28:04.071Z,5.40
2023-05-04T11:31:15.544Z,4.80
2023-05-04T11:34:20.993Z,4.88
2023-05-04T11:37:23.299Z,4.55
2023-05-04T11:40:26.824Z,3.72
2023-05-04T11:43:28.510Z,4.38
2023-05-04T11:46:32.470Z,4.53
2023-05-04T11:52:36.463Z,4.28
2023-05-04T11:55:38.573Z,3.97
2023-05-04T11:58:40.577Z,4.00
2023-05-04T12:01:42.077Z,4.50
2023-05-04T12:04:43.820Z,4.10
2023-05-04T12:07:45.338Z,3.63
2023-05-04T12:10:46.810Z,4.10
2023-05-04T12:13:49.769Z,3.92
2023-05-04T12:16:56.125Z,3.97
2023-05-04T12:19:57.582Z,3.97
2023-05-04T12:23:05.979Z,3.90
2023-05-04T12:26:08.952Z,3.70
2023-05-04T12:29:10.409Z,3.87
2023-05-04T12:32:12.075Z,4.07
2023-05-04T12:35:13.691Z,3.90
2023-05-04T12:38:15.569Z,3.90
2023-05-04T12:41:17.066Z,3.45
2023-05-04T12:44:18.947Z,3.33
2023-05-04T12:47:23.867Z,3.78
2023-05-04T12:50:25.337Z,3.25
2023-05-04T12:53:32.056Z,3.72
2023-05-04T12:56:33.956Z,3.55
2023-05-04T12:59:35.435Z,3.70
2023-05-04T13:02:37.752Z,3.80
2023-05-04T13:05:39.381Z,3.70
2023-05-04T13:08:40.869Z,3.67
2023-05-04T13:11:42.287Z,3.60
2023-05-04T13:14:43.983Z,3.30
2023-05-04T13:17:45.540Z,3.50
2023-05-04T13:20:47.130Z,3.58
2023-05-04T13:23:48.690Z,2.97
2023-05-04T13:26:50.191Z,3.28
2023-05-04T13:29:51.714Z,3.35
2023-05-04T13:32:53.216Z,3.25
2023-05-04T13:35:56.848Z,2.97
2023-05-04T13:38:58.388Z,2.83
2023-05-04T13:41:59.871Z,3.28
2023-05-04T13:45:01.350Z,3.65
2023-05-04T13:48:03.109Z,3.08
2023-05-04T13:51:04.647Z,3.20
2023-05-04T13:54:06.101Z,3.10
2023-05-04T13:57:07.670Z,4.47
2023-05-04T14:00:10.067Z,3.00
2023-05-04T14:03:14.305Z,2.58
2023-05-04T14:06:15.875Z,2.95
2023-05-04T14:09:18.445Z,2.92
2023-05-04T14:12:22.272Z,2.70
2023-05-04T14:15:23.885Z,3.28
2023-05-04T14:18:25.486Z,3.10
2023-05-04T14:21:27.948Z,2.85
2023-05-04T14:24:29.810Z,3.30
2023-05-04T14:27:34.359Z,3.28
2023-05-04T14:30:36.668Z,3.38
2023-05-04T14:33:41.073Z,3.50
2023-05-04T14:36:42.545Z,3.58
2023-05-04T14:39:44.568Z,3.47
2023-05-04T14:42:46.037Z,3.78
2023-05-04T14:45:47.530Z,3.78
2023-05-04T14:48:49.016Z,4.00
2023-05-04T14:51:50.486Z,3.72
2023-05-04T14:54:52.138Z,3.58
2023-05-04T14:57:53.676Z,3.92
2023-05-04T15:00:55.165Z,3.38
2023-05-04T15:03:56.794Z,3.45
2023-05-04T15:06:58.464Z,3.47
2023-05-04T15:09:59.966Z,3.72
2023-05-04T15:13:01.712Z,3.63
2023-05-04T15:16:04.535Z,3.90
2023-05-04T15:19:06.946Z,3.55
2023-05-04T15:22:08.544Z,3.47
2023-05-04T15:25:10.245Z,3.85
2023-05-04T15:28:11.984Z,3.83
2023-05-04T15:31:13.878Z,4.18
2023-05-04T15:34:18.341Z,4.10
2023-05-04T15:37:20.140Z,4.15
2023-05-04T15:40:21.635Z,3.55
2023-05-04T15:43:23.100Z,3.78
2023-05-04T15:46:24.631Z,3.72
2023-05-04T15:49:26.779Z,3.70
2023-05-04T15:52:28.256Z,3.88
2023-05-04T15:55:29.741Z,3.83
2023-05-04T15:58:31.370Z,3.70
2023-05-04T16:01:33.752Z,4.05
2023-05-04T16:04:35.854Z,4.10
2023-05-04T16:07:37.406Z,4.10
2023-05-04T16:10:38.910Z,3.70
2023-05-04T16:13:40.507Z,4.17
2023-05-04T16:16:42.446Z,3.92
2023-05-04T16:22:45.573Z,4.10
2023-05-04T16:25:47.094Z,4.18
2023-05-04T16:28:48.662Z,4.50
2023-05-04T16:31:50.119Z,4.22
2023-05-04T16:34:51.909Z,3.72
2023-05-04T16:37:53.613Z,3.80
2023-05-04T16:40:55.104Z,3.75
2023-05-04T16:43:56.752Z,3.70
2023-05-04T16:46:59.499Z,4.20
2023-05-04T16:50:01.012Z,4.45
2023-05-04T16:53:02.562Z,4.53
2023-05-04T16:56:04.364Z,4.88
2023-05-04T16:59:05.839Z,4.35
2023-05-04T17:02:08.642Z,4.28
2023-05-04T17:05:10.505Z,5.07
2023-05-04T17:08:12.604Z,9.48
2023-05-04T17:11:14.095Z,4.63
2023-05-04T17:14:16.069Z,5.78
2023-05-04T17:17:17.852Z,3.88
2023-05-04T17:20:19.715Z,4.28
2023-05-04T17:23:21.775Z,4.27
2023-05-04T17:26:23.287Z,4.50
2023-05-04T17:29:25.145Z,4.40
2023-05-04T17:32:26.710Z,4.32
2023-05-04T17:35:28.287Z,4.63
2023-05-04T17:38:29.836Z,4.35
2023-05-04T17:41:31.431Z,4.68
2023-05-04T17:44:32.975Z,4.60
2023-05-04T17:47:34.442Z,4.55
2023-05-04T17:50:36.204Z,4.60
2023-05-04T17:53:37.727Z,4.10
2023-05-04T17:56:39.280Z,4.22
2023-05-04T17:59:40.972Z,3.83
2023-05-04T18:02:42.686Z,4.50
2023-05-04T18:05:46.177Z,4.95
2023-05-04T18:11:49.138Z,5.32
2023-05-04T18:14:51.222Z,5.05
2023-05-04T18:17:52.987Z,6.07
2023-05-04T18:20:57.682Z,6.82
2023-05-04T18:23:59.177Z,6.55
2023-05-04T18:27:01.844Z,6.10
2023-05-04T18:30:05.179Z,5.97
2023-05-04T18:33:07.002Z,5.47
2023-05-04T18:36:08.546Z,6.55
2023-05-04T18:39:10.108Z,5.85
2023-05-04T18:42:11.699Z,6.35
2023-05-04T18:45:13.368Z,6.40
2023-05-04T18:48:14.873Z,7.38
2023-05-04T18:51:17.691Z,8.55
2023-05-04T18:54:19.168Z,7.60
2023-05-04T18:57:20.726Z,5.85
2023-05-04T19:00:23.013Z,6.15
2023-05-04T19:03:24.936Z,6.00
2023-05-04T19:06:26.461Z,6.03
2023-05-04T19:09:27.997Z,6.57
2023-05-04T19:12:29.551Z,6.35
2023-05-04T19:15:33.735Z,6.43
2023-05-04T19:18:35.510Z,5.90
2023-05-04T19:21:36.996Z,6.05
2023-05-04T19:24:38.592Z,6.05
2023-05-04T19:27:40.110Z,6.55
2023-05-04T19:30:41.649Z,6.57
2023-05-04T19:33:48.387Z,6.10
2023-05-04T19:36:50.495Z,6.93
2023-05-04T19:39:52.269Z,6.97
2023-05-04T19:42:53.733Z,8.18
2023-05-04T19:45:55.802Z,6.53
2023-05-04T19:48:59.154Z,7.35
2023-05-04T19:52:01.435Z,7.03
2023-05-04T19:55:03.211Z,7.32
2023-05-04T19:58:04.863Z,7.63
2023-05-04T20:01:06.428Z,7.25
2023-05-04T20:04:08.370Z,7.32
2023-05-04T20:07:09.999Z,6.95
2023-05-04T20:10:11.961Z,6.35
2023-05-04T20:13:13.739Z,7.45
2023-05-04T20:16:15.903Z,7.65
2023-05-04T20:19:17.510Z,7.07
2023-05-04T20:22:19.032Z,7.18
2023-05-04T20:25:20.627Z,6.82
2023-05-04T20:28:22.931Z,6.88
2023-05-04T20:31:24.451Z,8.02
2023-05-04T20:34:26.077Z,7.38
2023-05-04T20:37:27.637Z,7.22
2023-05-04T20:40:29.136Z,6.75
2023-05-04T20:43:30.695Z,6.88
2023-05-04T20:46:32.270Z,7.50
2023-05-04T20:49:33.961Z,7.32
2023-05-04T20:52:35.557Z,7.65
2023-05-04T20:55:37.191Z,7.53
2023-05-04T20:58:39.638Z,7.80
2023-05-04T21:01:41.338Z,7.55
2023-05-04T21:04:46.367Z,7.72
2023-05-04T21:07:47.866Z,8.00
2023-05-04T21:10:49.470Z,7.38
2023-05-04T21:13:52.152Z,7.38
2023-05-04T21:16:53.637Z,8.15
2023-05-04T21:19:55.081Z,8.45
2023-05-04T21:22:56.582Z,7.28
2023-05-04T21:26:02.430Z,7.47
2023-05-04T21:29:03.916Z,8.00
2023-05-04T21:32:05.993Z,7.18
2023-05-04T21:35:07.901Z,7.88
2023-05-04T21:38:09.324Z,6.57
2023-05-04T21:41:15.290Z,6.90
2023-05-04T21:44:16.915Z,6.20
2023-05-04T21:47:18.332Z,6.22
2023-05-04T21:50:19.838Z,5.90
2023-05-04T21:53:21.261Z,5.35
2023-05-04T21:56:22.786Z,5.80
2023-05-04T21:59:24.610Z,6.00
2023-05-04T22:02:26.187Z,6.38
2023-05-04T22:05:27.911Z,6.18
2023-05-04T22:08:29.807Z,5.97
2023-05-04T22:11:31.414Z,6.00
2023-05-04T22:14:33.174Z,6.43
2023-05-04T22:17:34.626Z,5.22
2023-05-04T22:20:36.972Z,5.50
2023-05-04T22:23:38.453Z,6.35
2023-05-04T22:26:40.862Z,5.93
2023-05-04T22:29:42.336Z,6.05
2023-05-04T22:32:44.668Z,4.75
2023-05-04T22:35:46.325Z,5.20
2023-05-04T22:38:50.917Z,4.82
2023-05-04T22:41:52.406Z,5.15
2023-05-04T22:44:53.861Z,4.93
2023-05-04T22:47:55.769Z,4.90
2023-05-04T22:50:57.442Z,4.75
2023-05-04T22:53:58.936Z,5.30
2023-05-04T22:57:01.311Z,5.25
2023-05-04T23:00:05.551Z,4.90
2023-05-04T23:03:07.647Z,5.05
2023-05-04T23:06:09.374Z,5.50
2023-05-04T23:09:11.580Z,5.78
2023-05-04T23:12:13.780Z,5.30
2023-05-04T23:15:15.336Z,5.45
2023-05-04T23:18:16.850Z,5.72
2023-05-04T23:21:18.298Z,5.30
2023-05-04T23:24:19.812Z,5.90
2023-05-04T23:27:21.341Z,5.63
2023-05-04T23:30:22.820Z,6.47
2023-05-04T23:33:24.311Z,6.07
2023-05-04T23:36:25.794Z,5.97
2023-05-04T23:39:27.394Z,5.35
2023-05-04T23:42:28.804Z,5.55
2023-05-04T23:45:30.377Z,5.45
2023-05-04T23:48:32.440Z,5.35
2023-05-04T23:51:33.938Z,5.03
2023-05-04T23:54:35.356Z,5.55
2023-05-04T23:57:36.839Z,4.85
